createdAt,value
2022-12-23T00:03:33.501Z,32.80
2022-12-23T00:08:35.823Z,40.65
2022-12-23T00:13:39.638Z,37.50
2022-12-23T00:18:42.796Z,40.08
2022-12-23T00:23:46.754Z,35.50
2022-12-23T00:28:50.850Z,38.38
2022-12-23T00:33:53.386Z,41.30
2022-12-23T00:38:56.583Z,39.00
2022-12-23T00:44:00.365Z,27.58
2022-12-23T00:49:02.619Z,36.28
2022-12-23T00:54:05.639Z,31.90
2022-12-23T00:59:09.175Z,28.30
2022-12-23T01:04:12.886Z,30.02
2022-12-23T01:09:15.041Z,30.75
2022-12-23T01:14:18.667Z,37.83
2022-12-23T01:19:20.953Z,34.38
2022-12-23T01:24:23.585Z,29.13
2022-12-23T01:29:27.195Z,32.88
2022-12-23T01:34:36.082Z,32.80
2022-12-23T01:39:39.039Z,32.65
2022-12-23T01:44:58.231Z,31.35
2022-12-23T01:50:05.015Z,30.67
2022-12-23T01:55:09.006Z,30.75
2022-12-23T02:00:13.618Z,28.50
2022-12-23T02:05:16.835Z,30.83
2022-12-23T02:10:19.735Z,31.08
2022-12-23T02:15:37.183Z,34.30
2022-12-23T02:21:20.571Z,33.55
2022-12-23T02:26:56.869Z,30.27
2022-12-23T02:32:05.677Z,34.13
2022-12-23T02:37:15.404Z,34.35
2022-12-23T02:42:20.670Z,31.98
2022-12-23T02:47:28.203Z,34.22
2022-12-23T02:52:34.757Z,29.27
2022-12-23T02:57:41.366Z,28.87
2022-12-23T03:02:45.560Z,34.15
2022-12-23T03:07:48.180Z,28.10
2022-12-23T03:13:01.916Z,31.65
2022-12-23T03:18:12.049Z,31.60
2022-12-23T03:23:23.737Z,32.95
2022-12-23T03:28:33.491Z,32.88
2022-12-23T03:33:41.670Z,34.30
2022-12-23T03:38:45.491Z,37.67
2022-12-23T03:43:52.581Z,41.83
2022-12-23T03:48:59.606Z,42.08
2022-12-23T03:54:07.594Z,40.22
2022-12-23T03:59:15.090Z,39.97
2022-12-23T04:04:24.899Z,42.88
2022-12-23T04:09:28.918Z,39.80
2022-12-23T04:14:32.637Z,38.90
2022-12-23T04:19:36.217Z,38.92
2022-12-23T04:24:38.912Z,34.50
2022-12-23T04:29:41.253Z,37.03
2022-12-23T04:34:44.848Z,35.75
2022-12-23T04:39:46.989Z,31.52
2022-12-23T04:44:49.143Z,34.83
2022-12-23T04:49:52.661Z,28.27
2022-12-23T04:54:54.805Z,35.05
2022-12-23T04:59:57.019Z,34.13
2022-12-23T05:05:00.538Z,44.35
2022-12-23T05:10:02.805Z,53.58
2022-12-23T05:15:06.105Z,187.90
2022-12-23T05:20:10.896Z,182.32
2022-12-23T05:25:12.968Z,143.88
2022-12-23T05:30:15.265Z,69.43
2022-12-23T05:35:18.830Z,28.48
2022-12-23T05:40:24.941Z,115.88
2022-12-23T05:45:34.735Z,106.70
2022-12-23T05:50:39.060Z,63.80
2022-12-23T05:55:41.222Z,47.40
2022-12-23T06:00:43.484Z,30.83
2022-12-23T06:05:50.377Z,43.40
2022-12-23T06:10:52.529Z,36.75
2022-12-23T06:15:54.700Z,37.78
2022-12-23T06:20:58.212Z,53.92
2022-12-23T06:26:01.176Z,57.38
2022-12-23T06:31:03.363Z,95.63
2022-12-23T06:36:08.339Z,39.10
2022-12-23T06:41:10.480Z,27.77
2022-12-23T06:46:14.124Z,26.58
2022-12-23T06:51:17.861Z,27.83
2022-12-23T06:56:20.203Z,28.50
2022-12-23T07:01:22.445Z,35.45
2022-12-23T07:06:26.029Z,30.52
2022-12-23T07:11:28.140Z,42.47
2022-12-23T07:16:30.317Z,33.35
2022-12-23T07:21:33.819Z,30.20
2022-12-23T07:26:35.992Z,28.92
2022-12-23T07:31:41.160Z,26.90
2022-12-23T07:36:45.249Z,30.60
2022-12-23T07:41:47.380Z,29.30
2022-12-23T07:46:49.664Z,29.52
2022-12-23T07:51:53.264Z,38.95
2022-12-23T07:56:55.481Z,29.67
2022-12-23T08:01:57.843Z,27.38
2022-12-23T08:07:02.996Z,28.52
2022-12-23T08:12:05.537Z,30.80
2022-12-23T08:17:07.973Z,28.20
2022-12-23T08:22:12.254Z,27.55
2022-12-23T08:27:15.156Z,25.50
2022-12-23T08:32:17.761Z,27.70
2022-12-23T08:37:21.718Z,31.58
2022-12-23T08:42:24.552Z,25.27
2022-12-23T08:47:27.244Z,25.85
2022-12-23T08:52:31.446Z,26.00
2022-12-23T08:57:35.132Z,24.13
2022-12-23T09:02:37.927Z,30.27
2022-12-23T09:07:44.057Z,21.42
2022-12-23T09:12:46.764Z,21.77
2022-12-23T09:17:49.441Z,22.20
2022-12-23T09:22:55.502Z,22.67
2022-12-23T09:27:58.354Z,21.17
2022-12-23T09:33:01.077Z,17.60
2022-12-23T09:38:08.075Z,21.10
2022-12-23T09:43:22.644Z,21.48
2022-12-23T09:48:29.729Z,19.15
2022-12-23T09:53:45.963Z,20.33
2022-12-23T09:58:55.464Z,23.45
2022-12-23T10:04:37.211Z,18.75
2022-12-23T10:09:49.384Z,23.17
2022-12-23T10:14:59.008Z,21.10
2022-12-23T10:20:15.083Z,22.40
2022-12-23T10:25:41.446Z,18.90
2022-12-23T10:31:16.811Z,20.58
2022-12-23T10:49:13.667Z,21.95
2022-12-23T10:54:33.938Z,22.95
2022-12-23T11:00:03.186Z,21.25
2022-12-23T11:05:14.755Z,21.08
2022-12-23T11:10:19.440Z,21.48
2022-12-23T11:15:28.186Z,30.30
2022-12-23T11:20:32.630Z,27.73
2022-12-23T11:25:38.085Z,20.73
2022-12-23T11:30:56.344Z,18.33
2022-12-23T11:36:06.933Z,20.88
2022-12-23T11:41:09.071Z,20.33
2022-12-23T11:46:18.319Z,19.35
2022-12-23T11:51:26.770Z,20.10
2022-12-23T11:56:34.512Z,19.73
2022-12-23T12:01:37.320Z,28.70
2022-12-23T12:06:49.836Z,49.28
2022-12-23T12:12:04.245Z,22.77
2022-12-23T12:17:16.745Z,22.33
2022-12-23T12:22:29.652Z,17.23
2022-12-23T12:27:37.506Z,24.33
2022-12-23T12:32:50.952Z,24.75
2022-12-23T12:37:59.620Z,74.97
2022-12-23T12:43:11.802Z,23.95
2022-12-23T12:48:36.375Z,20.67
2022-12-23T12:53:52.867Z,20.38
2022-12-23T12:58:54.971Z,25.07
2022-12-23T13:04:29.403Z,24.65
2022-12-23T13:09:40.357Z,24.70
2022-12-23T13:14:53.705Z,22.48
2022-12-23T13:20:03.437Z,28.52
2022-12-23T13:25:14.768Z,23.58
2022-12-23T13:30:18.531Z,25.38
2022-12-23T13:35:34.965Z,27.27
2022-12-23T13:40:46.880Z,23.27
2022-12-23T13:45:51.611Z,21.92
2022-12-23T13:50:59.818Z,25.35
2022-12-23T13:56:13.991Z,24.48
2022-12-23T14:01:34.623Z,25.65
2022-12-23T14:06:44.875Z,24.05
2022-12-23T14:11:50.066Z,28.83
2022-12-23T14:17:02.941Z,24.52
2022-12-23T14:22:29.637Z,24.92
2022-12-23T14:27:46.814Z,33.22
2022-12-23T14:38:09.367Z,27.13
2022-12-23T14:43:31.083Z,26.75
2022-12-23T14:49:15.905Z,27.45
2022-12-23T14:54:36.708Z,30.40
2022-12-23T14:59:48.047Z,27.05
2022-12-23T15:04:54.779Z,31.70
2022-12-23T15:10:01.243Z,31.93
2022-12-23T15:15:14.495Z,27.70
2022-12-23T15:20:20.658Z,32.08
2022-12-23T15:25:24.756Z,31.45
2022-12-23T15:30:30.342Z,33.65
2022-12-23T15:35:35.940Z,31.98
2022-12-23T15:40:39.312Z,31.05
2022-12-23T15:45:43.324Z,37.00
2022-12-23T15:50:45.476Z,28.40
2022-12-23T15:55:48.958Z,31.63
2022-12-23T16:00:56.745Z,31.95
2022-12-23T16:06:11.163Z,28.15
2022-12-23T16:11:16.350Z,27.67
2022-12-23T16:16:30.696Z,31.92
2022-12-23T16:21:35.660Z,31.98
2022-12-23T16:26:42.483Z,34.08
2022-12-23T16:31:51.239Z,31.08
2022-12-23T16:36:58.061Z,32.38
2022-12-23T16:42:00.144Z,29.02
2022-12-23T16:47:08.688Z,28.92
2022-12-23T16:52:13.348Z,34.38
2022-12-23T16:57:15.444Z,35.65
2022-12-23T17:02:22.977Z,35.42
2022-12-23T17:07:26.546Z,28.63
2022-12-23T17:12:28.740Z,34.30
2022-12-23T17:17:33.049Z,33.10
2022-12-23T17:22:36.718Z,33.65
2022-12-23T17:27:39.870Z,35.15
2022-12-23T17:32:46.474Z,41.50
2022-12-23T17:37:50.107Z,32.00
2022-12-23T17:42:52.214Z,38.47
2022-12-23T17:47:56.562Z,34.17
2022-12-23T17:52:58.753Z,33.53
2022-12-23T17:58:00.869Z,32.25
2022-12-23T18:03:05.086Z,33.30
2022-12-23T18:08:07.383Z,32.85
2022-12-23T18:13:18.160Z,30.58
2022-12-23T18:18:30.153Z,32.60
2022-12-23T18:23:38.488Z,32.00
2022-12-23T18:28:42.140Z,27.17
2022-12-23T18:33:46.321Z,27.10
2022-12-23T18:38:48.492Z,21.60
2022-12-23T18:43:52.004Z,27.25
2022-12-23T18:48:55.504Z,27.20
2022-12-23T18:53:58.332Z,26.20
2022-12-23T18:59:00.481Z,29.77
2022-12-23T19:04:04.073Z,23.85
2022-12-23T19:09:07.189Z,29.38
2022-12-23T19:14:11.335Z,22.20
2022-12-23T19:19:15.219Z,19.50
2022-12-23T19:24:17.811Z,22.02
2022-12-23T19:29:20.146Z,16.98
2022-12-23T19:34:24.113Z,20.00
2022-12-23T19:39:26.535Z,17.92
2022-12-23T19:44:29.010Z,18.08
2022-12-23T19:49:32.746Z,20.65
2022-12-23T19:54:35.115Z,20.55
2022-12-23T19:59:37.565Z,18.33
2022-12-23T20:04:41.539Z,20.15
2022-12-23T20:09:44.309Z,21.40
2022-12-23T20:14:46.571Z,20.58
2022-12-23T20:19:50.151Z,18.48
2022-12-23T20:24:52.627Z,21.10
2022-12-23T20:29:54.764Z,20.17
2022-12-23T20:34:58.397Z,20.50
2022-12-23T20:40:00.816Z,24.05
2022-12-23T20:45:03.107Z,24.80
2022-12-23T20:50:08.115Z,24.75
2022-12-23T20:55:10.328Z,21.52
2022-12-23T21:00:13.809Z,22.50
2022-12-23T21:05:17.672Z,23.23
2022-12-23T21:10:19.870Z,20.27
2022-12-23T21:15:21.991Z,23.20
2022-12-23T21:20:25.756Z,23.90
2022-12-23T21:25:27.961Z,17.80
2022-12-23T21:30:30.125Z,18.75
2022-12-23T21:35:35.623Z,24.40
2022-12-23T21:40:37.683Z,24.27
2022-12-23T21:45:39.823Z,27.40
2022-12-23T21:50:43.328Z,21.70
2022-12-23T21:55:45.453Z,24.98
2022-12-23T22:00:47.599Z,25.88
2022-12-23T22:05:51.270Z,27.27
2022-12-23T22:10:53.441Z,25.80
2022-12-23T22:15:55.654Z,29.52
2022-12-23T22:21:03.934Z,26.48
2022-12-23T22:26:07.281Z,27.50
2022-12-23T22:31:17.475Z,25.02
2022-12-23T22:36:21.060Z,26.02
2022-12-23T22:41:24.788Z,21.55
2022-12-23T22:46:27.286Z,23.40
2022-12-23T22:51:32.048Z,21.73
2022-12-23T22:56:34.675Z,28.05
2022-12-23T23:01:37.152Z,29.42
2022-12-23T23:06:42.120Z,27.60
2022-12-23T23:11:45.623Z,33.50
2022-12-23T23:16:47.916Z,37.58
2022-12-23T23:21:52.062Z,37.60
2022-12-23T23:26:54.211Z,36.97
2022-12-23T23:31:56.364Z,39.30
2022-12-23T23:37:00.861Z,42.92
2022-12-23T23:42:03.007Z,38.22
2022-12-23T23:47:05.250Z,39.30
2022-12-23T23:52:08.852Z,36.45
2022-12-23T23:57:11.206Z,39.67
